• Join FlightAware (Why Join?)
  • Login
  • US Flag 
11:03PM EDT


 

Airport Tracker/Info


-or-


 

Live Flight TrackerFlight Track Log ✈ N3077U ✈ 23-Mar-2014 ✈ KSAT - KADS

Flight Track Log - Related Links

Times and Time Zones

All times are in EDT time to prevent confusion due to time zone crossing. See the N3077U flight status page for this flight to view local times or setup timezone preferences in your user account.

Time Position Orientation Groundspeed Altitude Reporting Facility
EDT Latitude Longitude Course Direction KTS MPH feet Rate Location/Type
06:02PM 29.5392 -98.4594 327° Northwest 86 99 1,300  Level Houston Center
06:04PM 29.5617 -98.4761 327° Northwest 83 96 2,000 600 Climbing Houston Center
06:04PM 29.5661 -98.4756 North 88 101 2,100 540 Climbing Houston Center
06:05PM 29.5822 -98.4711 13° North 69 79 2,600 540 Climbing Houston Center
06:05PM 29.5856 -98.4689 30° Northeast 75 86 2,700 660 Climbing Houston Center
06:06PM 29.6072 -98.4706 356° North 87 100 3,300 720 Climbing Houston Center
06:06PM 29.6111 -98.4700 North 82 94 3,500 960 Climbing Houston Center
06:07PM 29.6300 -98.4656 12° North 90 104 4,300 840 Climbing Houston Center
06:07PM 29.6344 -98.4628 29° Northeast 86 99 4,400 480 Climbing Houston Center
06:08PM 29.6547 -98.4600 North 92 106 4,800 480 Climbing Houston Center
06:08PM 29.6614 -98.4583 12° North 94 108 4,900 540 Climbing Houston Center
06:09PM 29.6817 -98.4567 North 112 129 5,300 480 Climbing Houston Center
06:09PM 29.6922 -98.4531 17° North 109 125 5,400 480 Climbing Houston Center
06:10PM 29.7206 -98.4472 10° North 130 150 5,900 540 Climbing Houston Center
06:10PM 29.7278 -98.4458 North 126 145 6,000 540 Climbing Houston Center
06:11PM 29.7619 -98.4400 North 137 158 6,500 540 Climbing Houston Center
06:11PM 29.7681 -98.4372 22° Northeast 132 152 6,600 360 Climbing Houston Center
06:12PM 29.8056 -98.4294 10° North 134 154 7,000 180 Climbing Houston Center
06:13PM 29.8547 -98.4194 10° North 167 192 7,000  Level Houston Center
06:14PM 29.9058 -98.4081 11° North 181 208 7,000  Level Houston Center
06:15PM 29.9603 -98.3975 10° North 186 214 7,000  Level Houston Center
06:16PM 30.0114 -98.3869 10° North 188 216 7,000  Level Houston Center
06:17PM 30.0667 -98.3750 11° North 187 215 7,000  Level Houston Center
06:18PM 30.1181 -98.3636 11° North 187 215 7,000  Level Houston Center
06:19PM 30.1736 -98.3522 10° North 187 215 7,000  Level Houston Center
06:20PM 30.2247 -98.3406 11° North 187 215 7,000  Level Houston Center
06:21PM 30.2761 -98.3314 North 185 213 7,000  Level Houston Center
06:22PM 30.3225 -98.3208 11° North 186 214 7,000  Level Houston Center
06:23PM 30.3839 -98.3083 10° North 186 214 7,000  Level Houston Center
06:24PM 30.4350 -98.2975 10° North 186 214 7,000  Level Houston Center
06:25PM 30.4856 -98.2864 11° North 186 214 7,000  Level Houston Center
06:26PM 30.5358 -98.2761 10° North 185 213 7,000  Level Houston Center
06:27PM 30.5861 -98.2658 10° North 183 211 7,000  Level Houston Center
06:29PM 30.6333 -98.2561 10° North 178 205 7,000  Level Houston Center
06:30PM 30.6819 -98.2453 11° North 176 203 7,000  Level Houston Center
06:31PM 30.7381 -98.2336 10° North 176 203 7,000  Level Houston Center
06:32PM 30.7869 -98.2228 11° North 176 203 7,000  Level Houston Center
06:33PM 30.8356 -98.2139 North 176 203 7,000  Level Houston Center
06:34PM 30.8833 -98.2044 10° North 176 203 7,000  Level Houston Center
06:35PM 30.9311 -98.1931 12° North 176 203 7,000  Level Houston Center
06:36PM 30.9797 -98.1839 North 176 203 7,000  Level Houston Center
06:37PM 31.0269 -98.1733 11° North 175 201 7,000  Level Houston Center
06:38PM 31.0819 -98.1617 10° North 175 201 7,000  Level Houston Center
06:39PM 31.1303 -98.1508 11° North 175 201 7,100  Climbing Houston Center
06:40PM 31.1778 -98.1417 North 175 201 7,100  Level Fort Worth Center
06:40PM 31.1947 -98.1386 North 168 193 7,100  Level Fort Worth Center
06:41PM 31.2231 -98.1311 13° North 171 197 7,100  Level Fort Worth Center
06:41PM 31.2394 -98.1264 14° North 167 192 7,100  Level Fort Worth Center
06:42PM 31.2672 -98.1189 13° North 167 192 7,100  Level Fort Worth Center
06:42PM 31.2825 -98.1144 14° North 164 189 7,100  Level Fort Worth Center
06:43PM 31.3128 -98.1061 13° North 167 192 7,100  Level Fort Worth Center
06:43PM 31.3256 -98.1053 North 164 189 7,100  Level Fort Worth Center
06:44PM 31.3581 -98.0967 13° North 167 192 7,100  Level Fort Worth Center
06:44PM 31.3706 -98.0931 14° North 163 188 7,100  Level Fort Worth Center
06:45PM 31.4097 -98.0808 15° North 166 191 7,100  Level Fort Worth Center
06:45PM 31.4131 -98.0789 26° Northeast 163 188 7,100  Level Fort Worth Center
06:46PM 31.4500 -98.0567 27° Northeast 165 190 7,100  Level Fort Worth Center
06:47PM 31.4908 -98.0281 31° Northeast 165 190 7,100  Level Fort Worth Center
06:48PM 31.5317 -98.0000 30° Northeast 166 191 7,100  Level Fort Worth Center
06:49PM 31.5725 -97.9725 30° Northeast 166 191 7,100  Level Fort Worth Center
06:50PM 31.6131 -97.9456 29° Northeast 166 191 7,100  Level Fort Worth Center
06:51PM 31.6539 -97.9178 30° Northeast 166 191 7,100  Level Fort Worth Center
06:52PM 31.6958 -97.8892 30° Northeast 167 192 7,100  Level Fort Worth Center
06:53PM 31.7433 -97.8553 31° Northeast 167 192 7,100  Level Fort Worth Center
06:54PM 31.7844 -97.8278 30° Northeast 167 192 7,100  Level Fort Worth Center
06:55PM 31.8261 -97.8000 30° Northeast 167 192 7,100  Level Fort Worth Center
06:56PM 31.8664 -97.7711 31° Northeast 167 192 7,100  Level Fort Worth Center
06:58PM 31.9086 -97.7422 30° Northeast 169 194 7,100  Level Fort Worth Center
06:59PM 31.9503 -97.7153 29° Northeast 170 196 7,100  Level Fort Worth Center
07:00PM 31.9961 -97.6822 31° Northeast 170 196 7,100  Level Fort Worth Center
07:01PM 32.0394 -97.6528 30° Northeast 169 194 7,100  Level Fort Worth Center
07:02PM 32.0797 -97.6242 31° Northeast 169 194 7,100  Level Fort Worth Center
07:03PM 32.1233 -97.5947 30° Northeast 168 193 7,100  Level Fort Worth Center
07:04PM 32.1647 -97.5672 29° Northeast 168 193 7,100  Level Fort Worth Center
07:05PM 32.2061 -97.5381 31° Northeast 171 197 7,100  Level Fort Worth Center
07:06PM 32.2503 -97.5072 31° Northeast 170 196 7,100  Level Fort Worth Center
07:07PM 32.2919 -97.4769 32° Northeast 172 198 7,100  Level Fort Worth Center
07:08PM 32.3297 -97.4372 42° Northeast 171 197 7,100  Level Fort Worth Center
07:09PM 32.3369 -97.3806 81° East 180 207 7,100  Level Fort Worth Center
07:10PM 32.3392 -97.3194 88° East 177 204 7,100 -300 Level Fort Worth Center
07:11PM 32.3419 -97.2608 87° East 176 203 6,600 -540 Descending Fort Worth Center
07:12PM 32.3431 -97.1947 89° East 185 213 6,000 -540 Descending Fort Worth Center
07:13PM 32.3481 -97.1364 84° East 183 211 5,600 -420 Descending Fort Worth Center
07:14PM 32.3561 -97.0783 81° East 172 198 5,200 -300 Descending Fort Worth Center
07:15PM 32.3606 -97.0256 84° East 167 192 5,000 -60 Descending Fort Worth Center
07:16PM 32.3633 -96.9694 87° East 161 185 5,100  Climbing Fort Worth Center
07:17PM 32.3647 -96.9156 88° East 161 185 5,100 -120 Level Fort Worth Center
07:18PM 32.3669 -96.8569 87° East 164 189 4,900 -480 Descending Fort Worth Center
07:19PM 32.3900 -96.8119 59° Northeast 167 192 4,200 -420 Descending Fort Worth Center
07:20PM 32.4239 -96.7733 44° Northeast 156 180 4,100 -60 Descending Fort Worth Center
07:21PM 32.4497 -96.7383 49° Northeast 143 165 4,100  Level Fort Worth Center
07:22PM 32.4908 -96.7200 21° North 148 170 4,100  Level Fort Worth Center
07:23PM 32.5336 -96.7200 360° North 150 173 4,100  Level Fort Worth Center
07:24PM 32.5747 -96.7181 North 150 173 4,100  Level Fort Worth Center
07:25PM 32.6183 -96.7133 North 148 170 4,100  Level Fort Worth Center
07:26PM 32.6589 -96.7097 North 147 169 4,100  Level Fort Worth Center
07:28PM 32.7017 -96.7044 North 146 168 4,100  Level Fort Worth Center
07:28PM 32.7333 -96.7000 North 142 163 4,100  Level Dallas / Fort Worth TRACON
07:29PM 32.7667 -96.7000 360° North 150 173 4,100  Level Dallas / Fort Worth TRACON
07:30PM 32.8000 -96.7167 337° Northwest 140 161 4,200 -180 Climbing Dallas / Fort Worth TRACON
07:31PM 32.8333 -96.7500 320° Northwest 143 165 3,800 -780 Descending Dallas / Fort Worth TRACON
07:32PM 32.8667 -96.7833 320° Northwest 113 130 2,600 -900 Descending Dallas / Fort Worth TRACON
07:33PM 32.8833 -96.8000 320° Northwest 103 119 2,000 -480 Descending Dallas / Fort Worth TRACON
07:34PM 32.9167 -96.8167 337° Northwest 88 101 1,700 -360 Descending Dallas / Fort Worth TRACON
07:35PM 32.9333 -96.8167 360° North 89 102 1,300 -420 Descending Dallas / Fort Worth TRACON